createdAt,value
2019-01-12T00:00:33.111Z,97812.59
2019-01-12T00:05:27.820Z,97824.12
2019-01-12T00:10:22.409Z,97817.49
2019-01-12T00:15:17.068Z,97815.81
2019-01-12T00:20:11.824Z,97814.06
2019-01-12T00:25:08.840Z,97807.46
2019-01-12T00:30:04.386Z,97808.64
2019-01-12T00:34:59.024Z,97815.36
2019-01-12T00:39:53.594Z,97815.25
2019-01-12T00:44:48.253Z,97818.22
2019-01-12T00:49:42.848Z,97818.12
2019-01-12T00:54:38.714Z,97816.30
2019-01-12T00:59:33.514Z,97823.02
2019-01-12T01:04:28.103Z,97817.63
2019-01-12T01:09:22.811Z,97827.47
2019-01-12T01:14:17.393Z,97825.55
2019-01-12T01:19:11.985Z,97831.73
2019-01-12T01:24:06.645Z,97838.42
2019-01-12T01:29:01.226Z,97836.13
2019-01-12T01:33:55.823Z,97835.87
2019-01-12T01:38:50.428Z,97837.32
2019-01-12T01:43:45.012Z,97840.17
2019-01-12T01:48:39.606Z,97840.82
2019-01-12T01:53:34.191Z,97843.86
2019-01-12T01:58:28.777Z,97846.44
2019-01-12T02:03:23.379Z,97840.70
2019-01-12T02:08:18.022Z,97847.16
2019-01-12T02:13:12.618Z,97844.70
2019-01-12T02:18:07.303Z,97846.63
2019-01-12T02:23:01.894Z,97841.46
2019-01-12T02:27:56.553Z,97843.75
2019-01-12T02:32:51.131Z,97842.75
2019-01-12T02:37:45.726Z,97842.19
2019-01-12T02:42:40.314Z,97837.20
2019-01-12T02:47:34.922Z,97845.83
2019-01-12T02:52:29.549Z,97831.93
2019-01-12T02:57:24.172Z,97833.14
2019-01-12T03:02:18.735Z,97826.25
2019-01-12T03:07:13.385Z,97824.62
2019-01-12T03:12:08.049Z,97821.28
2019-01-12T03:17:02.748Z,97822.95
2019-01-12T03:21:57.338Z,97817.67
2019-01-12T03:26:51.947Z,97813.64
2019-01-12T03:31:46.601Z,97820.30
2019-01-12T03:36:41.388Z,97816.91
2019-01-12T03:41:36.181Z,97819.30
2019-01-12T03:46:30.783Z,97821.59
2019-01-12T03:51:25.373Z,97816.72
2019-01-12T03:56:19.966Z,97818.97
2019-01-12T04:01:14.572Z,97814.48
2019-01-12T04:06:09.186Z,97812.05
2019-01-12T04:11:03.869Z,97809.39
2019-01-12T04:15:58.461Z,97802.20
2019-01-12T04:20:53.059Z,97798.82
2019-01-12T04:25:47.667Z,97788.56
2019-01-12T04:30:42.236Z,97798.25
2019-01-12T04:35:36.840Z,97791.88
2019-01-12T04:40:31.488Z,97796.28
2019-01-12T04:45:26.096Z,97792.67
2019-01-12T04:50:20.738Z,97797.98
2019-01-12T04:55:15.963Z,97793.08
2019-01-12T05:00:14.795Z,97784.45
2019-01-12T05:05:09.574Z,97783.31
2019-01-12T05:10:06.674Z,97784.55
2019-01-12T05:15:01.308Z,97782.64
2019-01-12T05:19:55.914Z,97788.94
2019-01-12T05:24:50.623Z,97779.23
2019-01-12T05:29:45.202Z,97781.88
2019-01-12T05:34:39.813Z,97785.45
2019-01-12T05:39:34.420Z,97783.67
2019-01-12T05:44:29.050Z,97777.36
2019-01-12T05:49:23.649Z,97781.14
2019-01-12T05:54:18.242Z,97780.91
2019-01-12T05:59:12.873Z,97784.13
2019-01-12T06:04:07.482Z,97791.98
2019-01-12T06:09:02.084Z,97788.72
2019-01-12T06:13:56.679Z,97789.06
2019-01-12T06:18:51.268Z,97792.08
2019-01-12T06:23:45.857Z,97785.05
2019-01-12T06:28:40.442Z,97785.14
2019-01-12T06:33:35.104Z,97787.05
2019-01-12T06:38:29.743Z,97787.86
2019-01-12T06:43:24.337Z,97784.03
2019-01-12T06:48:18.914Z,97780.24
2019-01-12T06:53:13.532Z,97777.38
2019-01-12T06:58:08.110Z,97778.83
2019-01-12T07:03:02.726Z,97783.53
2019-01-12T07:07:57.309Z,97779.01
2019-01-12T07:12:51.913Z,97777.89
2019-01-12T07:17:46.578Z,97776.98
2019-01-12T07:22:41.316Z,97787.73
2019-01-12T07:27:35.889Z,97789.23
2019-01-12T07:32:30.485Z,97793.89
2019-01-12T07:37:25.138Z,97798.75
2019-01-12T07:42:19.728Z,97806.91
2019-01-12T07:47:14.410Z,97805.10
2019-01-12T07:52:09.002Z,97803.12
2019-01-12T07:57:03.568Z,97795.80
2019-01-12T08:01:58.182Z,97798.91
2019-01-12T08:06:52.751Z,97807.11
2019-01-12T08:11:47.374Z,97802.86
2019-01-12T08:16:41.962Z,97806.75
2019-01-12T08:21:36.586Z,97812.28
2019-01-12T08:26:31.484Z,97829.03
2019-01-12T08:31:26.136Z,97821.75
2019-01-12T08:36:20.771Z,97815.91
2019-01-12T08:41:15.372Z,97813.60
2019-01-12T08:46:10.012Z,97814.41
2019-01-12T08:51:04.912Z,97812.73
2019-01-12T08:55:59.531Z,97806.87
2019-01-12T09:00:54.143Z,97805.16
2019-01-12T09:05:48.739Z,97805.78
2019-01-12T09:10:43.408Z,97800.77
2019-01-12T09:15:38.017Z,97802.33
2019-01-12T09:20:32.637Z,97805.31
2019-01-12T09:25:27.401Z,97805.34
2019-01-12T09:30:22.426Z,97803.22
2019-01-12T09:35:17.547Z,97795.63
2019-01-12T09:40:17.997Z,97795.02
2019-01-12T09:45:15.877Z,97792.09
2019-01-12T09:50:17.215Z,97792.79
2019-01-12T09:55:12.037Z,97786.44
2019-01-12T10:00:22.367Z,97795.05
2019-01-12T10:05:16.940Z,97784.83
2019-01-12T10:10:16.116Z,97770.71
2019-01-12T10:15:12.306Z,97769.89
2019-01-12T10:20:14.457Z,97774.42
2019-01-12T10:25:10.674Z,97764.22
2019-01-12T10:30:09.860Z,97770.53
2019-01-12T10:35:07.280Z,97767.13
2019-01-12T10:40:01.894Z,97750.11
2019-01-12T10:44:56.502Z,97757.56
2019-01-12T10:49:51.097Z,97755.93
2019-01-12T10:54:45.742Z,97756.10
2019-01-12T10:59:40.356Z,97751.55
2019-01-12T11:04:34.941Z,97754.30
2019-01-12T11:09:29.585Z,97746.52
2019-01-12T11:14:24.177Z,97746.19
2019-01-12T11:19:19.000Z,97730.44
2019-01-12T11:24:13.593Z,97735.78
2019-01-12T11:29:08.265Z,97723.64
2019-01-12T11:34:02.894Z,97720.39
2019-01-12T11:38:57.603Z,97715.04
2019-01-12T11:43:52.175Z,97705.80
2019-01-12T11:48:46.782Z,97685.84
2019-01-12T11:53:41.457Z,97672.02
2019-01-12T11:58:36.058Z,97654.34
2019-01-12T12:03:30.645Z,97652.08
2019-01-12T12:08:25.273Z,97639.09
2019-01-12T12:13:19.881Z,97625.95
2019-01-12T12:18:14.485Z,97606.19
2019-01-12T12:23:09.064Z,97618.17
2019-01-12T12:28:03.802Z,97629.55
2019-01-12T12:32:58.544Z,97609.11
2019-01-12T12:37:53.414Z,97596.45
2019-01-12T12:42:47.991Z,97585.27
2019-01-12T12:47:42.771Z,97589.48
2019-01-12T12:52:37.353Z,97619.80
2019-01-12T12:57:33.079Z,97610.39
2019-01-12T13:02:27.778Z,97596.42
2019-01-12T13:07:22.418Z,97582.98
2019-01-12T13:12:17.040Z,97545.22
2019-01-12T13:17:11.644Z,97510.83
2019-01-12T13:22:06.480Z,97515.52
2019-01-12T13:27:01.071Z,97511.77
2019-01-12T13:31:55.724Z,97490.69
2019-01-12T13:36:50.331Z,97485.66
2019-01-12T13:41:44.939Z,97475.45
2019-01-12T13:46:39.565Z,97478.57
2019-01-12T13:51:34.174Z,97493.66
2019-01-12T13:56:28.883Z,97495.27
2019-01-12T14:01:23.558Z,97507.77
2019-01-12T14:06:18.157Z,97512.30
2019-01-12T14:11:12.730Z,97527.67
2019-01-12T14:16:07.535Z,97534.68
2019-01-12T14:21:02.268Z,97541.96
2019-01-12T14:25:56.938Z,97538.20
2019-01-12T14:30:51.573Z,97531.10
2019-01-12T14:35:46.169Z,97529.95
2019-01-12T14:40:40.769Z,97541.80
2019-01-12T14:45:35.557Z,97530.92
2019-01-12T14:50:30.146Z,97529.96
2019-01-12T14:55:24.810Z,97514.05
2019-01-12T15:00:25.626Z,97500.24
2019-01-12T15:05:23.399Z,97511.64
2019-01-12T15:10:20.807Z,97505.31
2019-01-12T15:15:17.986Z,97487.79
2019-01-12T15:20:19.887Z,97486.37
2019-01-12T15:25:15.384Z,97469.49
2019-01-12T15:30:17.464Z,97461.42
2019-01-12T15:35:12.127Z,97457.03
2019-01-12T15:40:14.052Z,97460.63
2019-01-12T15:45:13.235Z,97446.84
2019-01-12T15:50:17.830Z,97446.82
2019-01-12T15:55:12.723Z,97445.52
2019-01-12T16:00:22.927Z,97430.14
2019-01-12T16:05:17.824Z,97418.50
2019-01-12T16:10:14.861Z,97405.05
2019-01-12T16:15:16.614Z,97390.79
2019-01-12T16:20:22.345Z,97376.38
2019-01-12T16:25:17.863Z,97384.48
2019-01-12T16:30:21.278Z,97387.56
2019-01-12T16:35:16.093Z,97390.81
2019-01-12T16:40:15.270Z,97396.82
2019-01-12T16:45:11.365Z,97396.45
2019-01-12T16:50:08.518Z,97380.58
2019-01-12T16:55:03.175Z,97376.50
2019-01-12T16:59:57.859Z,97364.19
2019-01-12T17:04:52.511Z,97371.46
2019-01-12T17:09:47.093Z,97354.91
2019-01-12T17:14:41.692Z,97346.16
2019-01-12T17:19:36.336Z,97346.11
2019-01-12T17:24:30.921Z,97345.81
2019-01-12T17:29:25.543Z,97335.73
2019-01-12T17:34:20.165Z,97329.58
2019-01-12T17:39:14.742Z,97314.03
2019-01-12T17:44:09.407Z,97315.98
2019-01-12T17:49:04.109Z,97318.90
2019-01-12T17:53:58.720Z,97312.23
2019-01-12T17:58:53.319Z,97294.91
2019-01-12T18:03:47.920Z,97296.53
2019-01-12T18:08:42.509Z,97298.50
2019-01-12T18:13:37.099Z,97310.47
2019-01-12T18:18:31.723Z,97287.63
2019-01-12T18:23:26.379Z,97283.85
2019-01-12T18:28:20.975Z,97258.70
2019-01-12T18:33:15.545Z,97252.36
2019-01-12T18:38:10.220Z,97238.71
2019-01-12T18:43:04.993Z,97231.29
2019-01-12T18:47:59.636Z,97222.67
2019-01-12T18:52:54.762Z,97210.21
2019-01-12T18:57:49.370Z,97208.95
2019-01-12T19:02:44.071Z,97212.48
2019-01-12T19:07:38.658Z,97215.03
2019-01-12T19:12:33.258Z,97214.76
2019-01-12T19:17:27.847Z,97221.76
2019-01-12T19:22:22.487Z,97217.04
2019-01-12T19:27:17.082Z,97234.45
2019-01-12T19:32:11.675Z,97221.47
2019-01-12T19:37:06.359Z,97217.42
2019-01-12T19:42:00.956Z,97213.20
2019-01-12T19:46:55.525Z,97202.83
2019-01-12T19:51:50.123Z,97209.09
2019-01-12T19:56:44.706Z,97199.70
2019-01-12T20:01:39.287Z,97197.14
2019-01-12T20:06:33.967Z,97199.34
2019-01-12T20:11:28.624Z,97200.11
2019-01-12T20:16:23.206Z,97201.11
2019-01-12T20:21:17.797Z,97199.81
2019-01-12T20:26:12.429Z,97190.54
2019-01-12T20:31:45.513Z,97203.20
2019-01-12T20:36:53.147Z,97194.95
2019-01-12T20:42:35.564Z,97191.13
2019-01-12T20:47:43.557Z,97181.58
2019-01-12T20:52:54.663Z,97187.74
2019-01-12T20:58:12.012Z,97173.02
2019-01-12T21:03:16.937Z,97170.22
2019-01-12T21:08:19.019Z,97170.42
2019-01-12T21:13:48.286Z,97160.61
2019-01-12T21:18:42.895Z,97163.44
2019-01-12T21:23:37.480Z,97152.81
2019-01-12T21:28:32.062Z,97147.28
2019-01-12T21:33:26.773Z,97139.95
2019-01-12T21:38:21.353Z,97134.12
2019-01-12T21:43:15.947Z,97123.75
2019-01-12T21:48:10.547Z,97097.61
2019-01-12T21:53:05.322Z,97082.42
2019-01-12T21:57:59.931Z,97071.45
2019-01-12T22:02:54.511Z,97059.73
2019-01-12T22:07:49.083Z,97053.11
2019-01-12T22:12:43.685Z,97045.55
2019-01-12T22:17:38.333Z,97031.77
2019-01-12T22:22:32.933Z,97025.52
2019-01-12T22:27:27.515Z,97024.83
2019-01-12T22:32:22.228Z,97018.67
2019-01-12T22:37:16.820Z,97018.83
2019-01-12T22:42:11.418Z,97005.19
2019-01-12T22:47:06.002Z,96994.69
2019-01-12T22:52:00.596Z,96989.55
2019-01-12T22:56:55.189Z,96984.33
2019-01-12T23:01:50.883Z,96989.50
2019-01-12T23:06:45.471Z,96963.64
2019-01-12T23:11:40.138Z,96979.83
2019-01-12T23:16:34.740Z,96975.62
2019-01-12T23:21:29.386Z,96964.20
2019-01-12T23:26:24.138Z,96939.28
2019-01-12T23:31:18.805Z,96936.73
2019-01-12T23:36:13.410Z,96939.13
2019-01-12T23:41:08.040Z,96926.59
2019-01-12T23:46:02.736Z,96927.93
2019-01-12T23:50:57.334Z,96925.95
2019-01-12T23:55:51.937Z,96916.59
